Terminal Aerodrome Forecast
Issued by NWS Pittsburgh, PA

Current Version | Previous Version | Graphics & Text | Print | Product List | Glossary On
Versions: 1 2 3 4 5 6 7 8 9 10 11 12 13 14 15 16 17 18 19 20 21 22 23 24 25 26 27 28
000
FTUS41 KPBZ 211720
TAFPIT
TAF
KPIT 211720Z 2118/2224 VRB03KT P6SM BKN025 OVC060
     FM212100 31006KT P6SM BKN035 OVC060
     FM220200 25005KT P6SM SCT060
     FM221400 27007KT P6SM VCSH BKN025 OVC040
     FM221600 29010G18KT P6SM VCSH BKN025 OVC040
     FM221900 20012G20KT P6SM SKC=

USA.gov is the U.S. government's official web portal to all federal, state and local government web resources and services.